Terminal Aerodrome Forecast
Issued by NWS

Home | Current Version | Previous Version | Text Only | Print | Product List | Glossary Off
Versions: 1 2 3 4 5 6 7 8 9 10 11 12 13 14 15 16 17 18 19 20 21 22 23 24

000
FTUS43 KGRB 190528
TAFAUW
TAF
KAUW 190528Z 1906/2006 22004KT 5SM BR OVC006
     FM191100 21003KT 1 1/2SM BR OVC004
     FM191600 19003KT 5SM BR BKN010
     FM192000 17005KT 6SM BR SCT012
     FM200200 10003KT 2SM BR OVC010=

USA.gov is the U.S. government's official web portal to all federal, state and local government web resources and services.